Time;durP1;ratioP1;P1;durP2;ratioP2;P2;SDS_P1;SDS_P2;PMS_P1;PMS_P2;Temp;Humidity;BMP_temperature;BMP_pressure;BME280_temperature;BME280_humidity;BME280_pressure;Samples;Min_cycle;Max_cycle;Signal;HPM_P1;HPM_P2
2023/01/25 00:00:48;;;;;;;23.40;15.93;;;2.20;99.90;;;;;;5003866;28;20268;-77
2023/01/25 00:03:18;;;;;;;24.73;16.17;;;2.30;99.90;;;;;;5016905;28;20319;-77
2023/01/25 00:05:45;;;;;;;26.00;16.23;;;2.30;99.90;;;;;;5005932;28;20261;-76
2023/01/25 00:08:11;;;;;;;24.60;16.20;;;2.20;99.90;;;;;;5002485;28;20289;-77
2023/01/25 00:10:36;;;;;;;22.60;15.27;;;2.20;99.90;;;;;;4998543;28;20304;-76
2023/01/25 00:13:02;;;;;;;26.33;16.87;;;2.20;99.90;;;;;;4998247;28;20046;-76
2023/01/25 00:15:28;;;;;;;25.70;16.93;;;2.10;99.90;;;;;;5004440;28;20033;-76
2023/01/25 00:17:53;;;;;;;26.33;16.10;;;2.20;99.90;;;;;;4992126;28;20030;-77
2023/01/25 00:20:19;;;;;;;24.83;16.27;;;2.10;99.90;;;;;;4991207;28;20462;-75
2023/01/25 00:22:44;;;;;;;25.30;16.30;;;2.10;99.90;;;;;;5000580;28;20037;-76
2023/01/25 00:25:10;;;;;;;27.20;17.10;;;2.10;99.90;;;;;;4986361;28;20022;-79
2023/01/25 00:27:38;;;;;;;27.47;17.40;;;2.20;99.90;;;;;;4993872;28;20037;-76
2023/01/25 00:30:04;;;;;;;26.50;17.17;;;2.20;99.90;;;;;;4987582;28;20057;-76
2023/01/25 00:32:48;;;;;;;25.53;16.67;;;2.10;99.90;;;;;;4990126;28;20301;-78
2023/01/25 00:35:16;;;;;;;27.07;17.23;;;2.10;99.90;;;;;;4994239;28;20281;-76
2023/01/25 00:37:45;;;;;;;26.10;16.67;;;2.20;99.90;;;;;;4997703;28;20296;-76
2023/01/25 00:40:14;;;;;;;23.17;15.63;;;2.20;99.90;;;;;;4993259;28;20265;-76
2023/01/25 00:42:39;;;;;;;23.57;15.57;;;2.10;99.90;;;;;;5006761;28;20281;-76
2023/01/25 00:45:08;;;;;;;24.13;16.03;;;2.10;99.90;;;;;;4990565;28;20327;-75
2023/01/25 00:47:36;;;;;;;25.70;15.93;;;2.20;99.90;;;;;;4984021;28;20076;-77
2023/01/25 00:50:01;;;;;;;22.20;15.23;;;2.20;99.90;;;;;;4990654;28;20788;-75
2023/01/25 00:52:27;;;;;;;23.20;15.33;;;2.20;99.90;;;;;;5002667;28;20281;-76
2023/01/25 00:54:53;;;;;;;24.20;16.43;;;2.20;99.90;;;;;;4991127;28;20662;-76
2023/01/25 00:57:19;;;;;;;21.77;14.80;;;2.20;99.90;;;;;;4991140;28;20034;-76
2023/01/25 00:59:46;;;;;;;22.77;14.90;;;2.10;99.90;;;;;;4988247;28;20027;-76
2023/01/25 01:02:12;;;;;;;29.13;17.50;;;2.20;99.90;;;;;;4989014;28;20228;-75
2023/01/25 01:04:37;;;;;;;25.10;16.40;;;2.20;99.90;;;;;;4986457;28;20284;-77
2023/01/25 01:07:06;;;;;;;31.03;16.80;;;2.10;99.90;;;;;;4988926;28;20121;-76
2023/01/25 01:09:32;;;;;;;26.87;17.13;;;2.10;99.90;;;;;;4985915;28;20038;-76
2023/01/25 01:11:58;;;;;;;26.80;17.03;;;2.20;99.90;;;;;;4995354;28;20061;-77
2023/01/25 01:14:23;;;;;;;26.10;17.23;;;2.20;99.90;;;;;;5006975;28;20038;-77
2023/01/25 01:16:49;;;;;;;26.17;16.13;;;2.10;99.90;;;;;;5004432;28;20072;-77
2023/01/25 01:19:15;;;;;;;24.80;16.53;;;2.20;99.90;;;;;;4994731;28;20033;-75
2023/01/25 01:21:41;;;;;;;26.43;16.77;;;2.10;99.90;;;;;;5001943;28;20041;-76
2023/01/25 01:24:12;;;;;;;27.03;17.80;;;2.10;99.90;;;;;;4992374;28;20026;-75
2023/01/25 01:26:38;;;;;;;25.50;16.07;;;2.10;99.90;;;;;;4988363;28;20033;-76
2023/01/25 01:29:04;;;;;;;27.73;16.93;;;2.20;99.90;;;;;;4990098;28;20292;-75
2023/01/25 01:31:29;;;;;;;23.30;16.30;;;2.10;99.90;;;;;;4995895;28;20480;-76
2023/01/25 01:33:58;;;;;;;25.67;16.43;;;2.10;99.90;;;;;;4995743;28;20363;-77
2023/01/25 01:36:26;;;;;;;28.37;16.93;;;2.10;99.90;;;;;;4989966;28;20176;-75
2023/01/25 01:38:52;;;;;;;24.77;16.77;;;2.20;99.90;;;;;;4987230;28;20296;-75
2023/01/25 01:41:18;;;;;;;25.83;17.40;;;2.20;99.90;;;;;;4988966;28;20284;-76
2023/01/25 01:43:44;;;;;;;23.87;15.77;;;2.20;99.90;;;;;;4987551;28;20041;-75
2023/01/25 01:46:33;;;;;;;26.60;16.17;;;2.20;99.90;;;;;;4988280;28;20284;-77
2023/01/25 01:49:17;;;;;;;26.47;15.90;;;2.20;99.90;;;;;;4989009;28;20333;-76
2023/01/25 01:51:57;;;;;;;22.83;15.17;;;2.10;99.90;;;;;;5001565;28;20280;-77
2023/01/25 01:54:28;;;;;;;23.20;14.57;;;2.00;99.90;;;;;;4985299;28;20293;-76
2023/01/25 01:57:14;;;;;;;24.10;15.83;;;2.00;99.90;;;;;;5004989;28;20285;-75
2023/01/25 01:59:44;;;;;;;23.27;15.30;;;2.00;99.90;;;;;;4993788;28;20274;-76
2023/01/25 02:02:11;;;;;;;24.80;15.53;;;2.00;99.90;;;;;;4992112;28;20277;-75
2023/01/25 02:04:36;;;;;;;23.63;15.87;;;2.00;99.90;;;;;;4994137;28;20289;-75
2023/01/25 02:07:22;;;;;;;27.20;16.67;;;2.00;99.90;;;;;;4993016;28;20285;-75
2023/01/25 02:09:49;;;;;;;24.17;16.20;;;2.00;99.90;;;;;;4994108;28;20037;-77
2023/01/25 02:12:18;;;;;;;25.27;16.10;;;2.00;99.90;;;;;;5003686;28;20281;-76
2023/01/25 02:14:51;;;;;;;21.23;13.97;;;1.90;99.90;;;;;;4983506;28;20289;-75
2023/01/25 02:17:23;;;;;;;23.30;14.82;;;1.90;99.90;;;;;;4996373;28;20384;-76
2023/01/25 02:20:07;;;;;;;24.02;15.45;;;1.90;99.90;;;;;;5004535;28;20080;-76
2023/01/25 02:22:46;;;;;;;22.93;14.20;;;1.90;99.90;;;;;;4992347;28;20053;-76
2023/01/25 02:25:13;;;;;;;24.67;15.73;;;1.80;99.90;;;;;;4988058;28;20335;-74
2023/01/25 02:27:47;;;;;;;26.17;16.77;;;1.80;99.90;;;;;;5004788;28;21164;-75
2023/01/25 02:30:13;;;;;;;27.00;17.47;;;1.80;99.90;;;;;;4992975;28;20273;-76
2023/01/25 02:32:39;;;;;;;24.67;15.97;;;1.80;99.90;;;;;;4996174;28;20269;-77
2023/01/25 02:35:07;;;;;;;22.03;15.10;;;1.90;99.90;;;;;;5004112;28;20110;-76
2023/01/25 02:37:36;;;;;;;25.17;16.63;;;2.00;99.90;;;;;;4986817;28;20026;-76
2023/01/25 02:40:04;;;;;;;27.07;16.40;;;2.00;99.90;;;;;;4993968;28;20281;-77
2023/01/25 02:42:31;;;;;;;24.23;15.70;;;1.90;99.90;;;;;;4993066;28;20273;-76
2023/01/25 02:44:56;;;;;;;25.20;15.97;;;1.90;99.90;;;;;;4996697;28;20258;-77
2023/01/25 02:47:24;;;;;;;23.73;15.23;;;1.90;99.90;;;;;;5010048;28;21638;-77
2023/01/25 02:49:52;;;;;;;24.00;14.53;;;1.90;99.90;;;;;;4999841;28;20038;-76
2023/01/25 02:52:17;;;;;;;22.57;14.30;;;2.00;99.90;;;;;;4999880;28;20268;-76
2023/01/25 02:54:44;;;;;;;22.27;14.97;;;2.10;99.90;;;;;;5016742;28;20581;-76
2023/01/25 02:57:09;;;;;;;23.33;16.17;;;2.00;99.90;;;;;;4999177;28;20026;-76
2023/01/25 02:59:35;;;;;;;22.70;15.20;;;1.90;99.90;;;;;;4990979;28;20276;-76
2023/01/25 03:02:03;;;;;;;25.67;16.57;;;1.80;99.90;;;;;;5012691;28;20478;-76
2023/01/25 03:04:32;;;;;;;25.50;15.70;;;1.70;99.90;;;;;;4998117;28;20018;-77
2023/01/25 03:07:00;;;;;;;28.77;18.37;;;1.80;99.90;;;;;;4999120;28;20370;-77
2023/01/25 03:09:28;;;;;;;24.30;16.47;;;1.80;99.90;;;;;;4999598;28;20264;-77
2023/01/25 03:11:53;;;;;;;22.93;15.70;;;1.90;99.90;;;;;;4999413;28;20335;-77
2023/01/25 03:14:21;;;;;;;26.97;16.97;;;1.90;99.90;;;;;;4993292;28;20729;-77
2023/01/25 03:16:47;;;;;;;26.53;17.97;;;1.90;99.90;;;;;;5015404;28;20454;-77
2023/01/25 03:19:14;;;;;;;23.70;16.90;;;1.90;99.90;;;;;;4999086;28;20272;-78
2023/01/25 03:21:40;;;;;;;23.77;16.43;;;1.90;99.90;;;;;;5006918;28;20073;-76
2023/01/25 03:24:09;;;;;;;26.07;18.07;;;1.90;99.90;;;;;;4991302;28;20280;-79
2023/01/25 03:27:09;;;;;;;27.57;17.77;;;1.90;99.90;;;;;;4995697;28;20080;-76
2023/01/25 03:29:20;;;;;;;24.23;16.43;;;1.90;99.90;;;;;;5004982;28;20262;-78
2023/01/25 03:31:46;;;;;;;27.00;17.00;;;1.90;99.90;;;;;;5007964;28;20329;-77
2023/01/25 03:34:12;;;;;;;25.93;16.97;;;1.90;99.90;;;;;;4990257;28;20030;-76
2023/01/25 03:36:37;;;;;;;27.00;17.60;;;1.90;99.90;;;;;;5002076;28;20033;-76
2023/01/25 03:39:03;;;;;;;28.47;17.60;;;1.90;99.90;;;;;;4989519;28;20026;-76
2023/01/25 03:41:28;;;;;;;28.13;16.43;;;1.80;99.90;;;;;;5005244;28;20021;-77
2023/01/25 03:43:54;;;;;;;27.57;17.80;;;1.80;99.90;;;;;;4998627;28;20120;-77
2023/01/25 03:46:19;;;;;;;25.07;17.20;;;1.90;99.90;;;;;;5011036;28;20025;-76
2023/01/25 03:48:45;;;;;;;24.93;17.13;;;1.80;99.90;;;;;;4998628;28;20107;-77
2023/01/25 03:51:16;;;;;;;26.43;16.63;;;1.90;99.90;;;;;;5007110;28;20367;-77
2023/01/25 03:53:44;;;;;;;26.50;16.87;;;1.90;99.90;;;;;;5008289;28;20253;-76
2023/01/25 03:56:16;;;;;;;26.43;16.10;;;1.90;99.90;;;;;;5014075;28;20272;-76
2023/01/25 03:58:41;;;;;;;29.30;18.25;;;1.80;99.90;;;;;;5002428;28;20257;-77
2023/01/25 04:01:07;;;;;;;25.90;17.40;;;1.80;99.90;;;;;;4996893;28;20044;-77
2023/01/25 04:03:33;;;;;;;28.93;17.50;;;1.80;99.90;;;;;;5005819;28;20369;-76
2023/01/25 04:05:59;;;;;;;27.37;17.07;;;1.90;99.90;;;;;;4981732;28;20044;-77
2023/01/25 04:08:25;;;;;;;28.63;18.63;;;1.90;99.90;;;;;;4978579;28;20026;-77
2023/01/25 04:10:56;;;;;;;30.77;18.97;;;1.90;99.90;;;;;;4996647;28;20276;-77
2023/01/25 04:13:23;;;;;;;29.40;19.10;;;1.80;99.90;;;;;;4997797;28;20304;-75
2023/01/25 04:15:49;;;;;;;26.23;17.03;;;1.80;99.90;;;;;;4993524;28;20257;-76
2023/01/25 04:18:15;;;;;;;27.53;17.40;;;1.90;99.90;;;;;;5003875;28;20354;-76
2023/01/25 04:20:43;;;;;;;29.57;19.53;;;1.90;99.90;;;;;;4997630;28;20721;-76
2023/01/25 04:23:09;;;;;;;27.70;17.33;;;1.80;99.90;;;;;;5003106;28;20039;-77
2023/01/25 04:25:35;;;;;;;27.20;17.40;;;1.80;99.90;;;;;;4996336;28;20312;-77
2023/01/25 04:28:01;;;;;;;28.30;18.23;;;1.70;99.90;;;;;;5007860;28;20709;-75
2023/01/25 04:30:27;;;;;;;27.00;17.77;;;1.70;99.90;;;;;;4990106;28;20359;-77
2023/01/25 04:32:53;;;;;;;27.23;17.93;;;1.70;99.90;;;;;;5012066;28;20030;-75
2023/01/25 04:35:21;;;;;;;27.83;17.70;;;1.70;99.90;;;;;;5003929;28;20506;-76
2023/01/25 04:37:55;;;;;;;27.30;18.73;;;1.70;99.90;;;;;;4979630;28;20026;-76
2023/01/25 04:40:20;;;;;;;31.37;19.63;;;1.70;99.90;;;;;;4991150;28;20269;-77
2023/01/25 04:42:46;;;;;;;28.03;17.73;;;1.80;99.90;;;;;;5005877;28;20273;-77
2023/01/25 04:45:12;;;;;;;29.20;18.47;;;1.80;99.90;;;;;;5009784;28;20034;-76
2023/01/25 04:47:37;;;;;;;29.20;18.80;;;1.80;99.90;;;;;;5000881;28;20033;-76
2023/01/25 04:50:03;;;;;;;27.30;17.77;;;1.80;99.90;;;;;;4995019;28;20033;-76
2023/01/25 04:52:29;;;;;;;27.53;17.63;;;1.80;99.90;;;;;;4996194;28;20470;-76
2023/01/25 04:54:54;;;;;;;28.93;18.83;;;1.80;99.90;;;;;;5003142;28;20447;-77
2023/01/25 04:57:20;;;;;;;31.03;20.00;;;1.80;99.90;;;;;;4998251;28;20061;-75
2023/01/25 04:59:46;;;;;;;29.27;18.80;;;1.70;99.90;;;;;;5014815;28;20030;-76
2023/01/25 05:02:11;;;;;;;25.47;16.87;;;1.70;99.90;;;;;;5012210;28;20022;-76
2023/01/25 05:04:37;;;;;;;29.93;18.77;;;1.80;99.90;;;;;;4995851;28;20030;-77
2023/01/25 05:07:02;;;;;;;27.67;17.47;;;1.90;99.90;;;;;;4984533;28;20426;-77
2023/01/25 05:09:28;;;;;;;29.63;17.57;;;1.80;99.90;;;;;;4997485;28;20443;-77
2023/01/25 05:11:54;;;;;;;27.37;17.13;;;1.70;99.90;;;;;;5006072;28;20072;-76
2023/01/25 05:14:19;;;;;;;29.03;18.57;;;1.70;99.90;;;;;;5014373;28;20096;-77
2023/01/25 05:16:46;;;;;;;30.67;19.67;;;1.70;99.90;;;;;;4996506;28;20034;-77
2023/01/25 05:19:11;;;;;;;27.60;18.10;;;1.70;99.90;;;;;;4990272;28;20057;-77
2023/01/25 05:24:22;;;;;;;28.20;17.73;;;1.70;99.90;;;;;;5013276;28;20471;-76
2023/01/25 05:26:59;;;;;;;30.57;18.53;;;1.70;99.90;;;;;;4989033;28;20363;-77
2023/01/25 05:29:31;;;;;;;27.93;16.97;;;1.70;99.90;;;;;;4996775;28;20030;-78
2023/01/25 05:31:58;;;;;;;29.73;18.00;;;1.70;99.90;;;;;;5001250;28;20257;-77
2023/01/25 05:34:24;;;;;;;31.03;18.43;;;1.70;99.90;;;;;;4988931;28;20272;-77
2023/01/25 05:36:50;;;;;;;28.97;17.43;;;1.60;99.90;;;;;;4998554;28;20285;-77
2023/01/25 05:39:16;;;;;;;28.53;17.27;;;1.50;99.90;;;;;;4986069;28;20718;-76
2023/01/25 05:41:42;;;;;;;31.97;19.00;;;1.60;99.90;;;;;;4999274;28;20405;-77
2023/01/25 05:44:08;;;;;;;30.90;19.10;;;1.70;99.90;;;;;;5007821;28;20453;-77
2023/01/25 05:46:36;;;;;;;32.23;19.53;;;1.60;99.90;;;;;;5012384;28;20044;-76
2023/01/25 05:49:01;;;;;;;29.03;18.13;;;1.60;99.90;;;;;;4992209;28;20034;-77
2023/01/25 05:51:27;;;;;;;29.60;18.90;;;1.70;99.90;;;;;;4986594;28;20277;-77
2023/01/25 05:53:56;;;;;;;30.07;18.80;;;1.70;99.90;;;;;;4997345;28;20106;-76
2023/01/25 05:56:25;;;;;;;33.50;20.27;;;1.70;99.90;;;;;;5017393;28;20118;-77
2023/01/25 05:58:55;;;;;;;36.93;21.40;;;1.70;99.90;;;;;;4999737;28;20746;-77
2023/01/25 06:01:21;;;;;;;29.67;18.83;;;1.80;99.90;;;;;;4993497;28;20339;-77
2023/01/25 06:03:47;;;;;;;31.50;19.77;;;1.80;99.90;;;;;;4991304;28;20404;-77
2023/01/25 06:06:15;;;;;;;32.97;20.27;;;1.70;99.90;;;;;;5000149;28;20269;-77
2023/01/25 06:08:41;;;;;;;29.90;19.30;;;1.70;99.90;;;;;;4991218;28;20266;-76
2023/01/25 06:11:08;;;;;;;32.93;21.10;;;1.70;99.90;;;;;;5000284;28;20291;-77
2023/01/25 06:13:34;;;;;;;34.63;22.03;;;1.70;99.90;;;;;;5000343;28;20121;-77
2023/01/25 06:16:03;;;;;;;33.50;20.07;;;1.70;99.90;;;;;;5009209;28;20253;-77
2023/01/25 06:18:31;;;;;;;33.53;20.60;;;1.70;99.90;;;;;;5017431;28;20272;-75
2023/01/25 06:20:57;;;;;;;35.93;21.03;;;1.60;99.90;;;;;;5014999;28;20267;-78
2023/01/25 06:23:23;;;;;;;35.40;20.47;;;1.60;99.90;;;;;;5000550;28;20304;-76
2023/01/25 06:25:49;;;;;;;31.37;19.40;;;1.50;99.90;;;;;;4997268;28;20668;-76
2023/01/25 06:28:15;;;;;;;34.67;19.87;;;1.40;99.90;;;;;;4989159;28;20116;-77
2023/01/25 06:30:40;;;;;;;33.13;20.03;;;1.50;99.90;;;;;;5010640;28;20026;-78
2023/01/25 06:33:06;;;;;;;30.73;19.47;;;1.50;99.90;;;;;;5014290;28;20041;-77
2023/01/25 06:35:32;;;;;;;35.43;20.90;;;1.70;99.90;;;;;;4999781;28;20117;-77
2023/01/25 06:38:01;;;;;;;34.30;20.87;;;1.50;99.90;;;;;;4997969;28;20092;-77
2023/01/25 06:40:27;;;;;;;37.17;22.93;;;1.50;99.90;;;;;;4996088;28;20269;-77
2023/01/25 06:42:53;;;;;;;34.53;20.70;;;1.60;99.90;;;;;;5008663;28;20284;-77
2023/01/25 06:45:19;;;;;;;35.53;20.63;;;1.60;99.90;;;;;;4995136;28;20276;-77
2023/01/25 06:47:47;;;;;;;36.83;23.03;;;1.60;99.90;;;;;;4994625;28;20309;-77
2023/01/25 06:50:13;;;;;;;38.60;22.10;;;1.50;99.90;;;;;;4995942;28;20325;-76
2023/01/25 06:52:39;;;;;;;36.17;21.53;;;1.60;99.90;;;;;;4999883;28;20353;-76
2023/01/25 06:55:07;;;;;;;32.00;19.63;;;1.50;99.90;;;;;;4993760;28;20096;-77
2023/01/25 06:57:35;;;;;;;36.87;23.00;;;1.50;99.90;;;;;;4995278;28;20026;-76
2023/01/25 07:00:01;;;;;;;37.10;22.83;;;1.50;99.90;;;;;;4988883;28;20281;-76
2023/01/25 07:02:26;;;;;;;35.53;21.10;;;1.50;99.90;;;;;;4993206;28;21252;-75
2023/01/25 07:04:52;;;;;;;36.67;22.53;;;1.50;99.90;;;;;;4989821;28;20046;-76
2023/01/25 07:07:17;;;;;;;39.40;23.50;;;1.40;99.90;;;;;;4996130;28;20616;-76
2023/01/25 07:09:43;;;;;;;32.90;20.77;;;1.40;99.90;;;;;;5001551;28;20518;-76
2023/01/25 07:12:08;;;;;;;35.00;21.07;;;1.40;99.90;;;;;;5005977;28;20085;-76
2023/01/25 07:14:34;;;;;;;38.17;22.70;;;1.60;99.90;;;;;;5000100;28;20038;-76
2023/01/25 07:17:00;;;;;;;37.37;23.33;;;1.50;99.90;;;;;;4992483;28;20118;-76
2023/01/25 07:19:25;;;;;;;35.37;21.67;;;1.50;99.90;;;;;;4993524;28;20129;-76
2023/01/25 07:21:51;;;;;;;35.73;22.57;;;1.60;99.90;;;;;;5005263;28;20406;-75
2023/01/25 07:24:18;;;;;;;35.00;21.73;;;1.50;99.90;;;;;;4990945;28;20495;-78
2023/01/25 07:26:45;;;;;;;39.20;23.00;;;1.50;99.90;;;;;;4992146;28;20038;-76
2023/01/25 07:29:16;;;;;;;40.10;23.70;;;1.40;99.90;;;;;;4985316;28;20281;-75
2023/01/25 07:31:41;;;;;;;37.37;23.00;;;1.40;99.90;;;;;;5000993;28;20295;-76
2023/01/25 07:34:09;;;;;;;37.17;23.53;;;1.50;99.90;;;;;;4993369;28;20289;-77
2023/01/25 07:36:36;;;;;;;38.43;23.83;;;1.40;99.90;;;;;;5001248;28;20052;-75
2023/01/25 07:39:02;;;;;;;39.77;24.97;;;1.50;99.90;;;;;;4984344;28;20343;-75
2023/01/25 07:41:28;;;;;;;38.80;24.67;;;1.60;99.90;;;;;;4992447;28;20367;-76
2023/01/25 07:43:56;;;;;;;38.57;22.77;;;1.70;99.90;;;;;;4986755;28;20742;-77
2023/01/25 07:46:23;;;;;;;41.43;24.03;;;1.60;99.90;;;;;;5005293;28;20081;-78
2023/01/25 07:48:50;;;;;;;39.40;24.27;;;1.50;99.90;;;;;;4992993;28;20300;-78
2023/01/25 07:51:28;;;;;;;35.20;22.83;;;1.40;99.90;;;;;;4993703;28;20281;-75
2023/01/25 07:54:00;;;;;;;39.27;22.43;;;1.40;99.90;;;;;;5002610;28;20313;-77
2023/01/25 07:56:39;;;;;;;35.67;22.00;;;1.40;99.90;;;;;;5001494;28;20749;-76
2023/01/25 07:59:08;;;;;;;43.00;26.13;;;1.40;99.90;;;;;;4989688;28;20280;-77
2023/01/25 08:01:35;;;;;;;57.53;32.23;;;1.50;99.90;;;;;;4991368;28;20285;-77
2023/01/25 08:04:02;;;;;;;42.60;25.13;;;1.60;99.90;;;;;;4993686;28;20336;-76
2023/01/25 08:06:34;;;;;;;44.00;25.50;;;1.60;99.90;;;;;;4993037;28;20281;-77
2023/01/25 08:09:00;;;;;;;41.80;25.00;;;1.50;99.90;;;;;;4987874;28;20336;-78
2023/01/25 08:11:28;;;;;;;41.33;25.03;;;1.40;99.90;;;;;;4995958;28;20029;-77
2023/01/25 08:13:55;;;;;;;46.97;25.80;;;1.40;99.90;;;;;;4982497;28;20352;-77
2023/01/25 08:16:23;;;;;;;44.20;24.93;;;1.30;99.90;;;;;;4993577;28;20733;-77
2023/01/25 08:18:51;;;;;;;46.40;26.67;;;1.30;99.90;;;;;;5002148;28;20272;-76
2023/01/25 08:21:20;;;;;;;47.13;27.20;;;1.20;99.90;;;;;;4982100;28;20277;-76
2023/01/25 08:23:48;;;;;;;50.03;27.27;;;1.30;99.90;;;;;;4992838;28;20749;-77
2023/01/25 08:26:15;;;;;;;41.67;25.43;;;1.30;99.90;;;;;;4987144;28;20273;-77
2023/01/25 08:28:44;;;;;;;48.03;27.60;;;1.30;99.90;;;;;;4986096;28;20603;-78
2023/01/25 08:31:12;;;;;;;45.20;26.03;;;1.40;99.90;;;;;;4985530;28;20269;-77
2023/01/25 08:33:39;;;;;;;46.07;27.57;;;1.50;99.90;;;;;;4990551;28;20327;-76
2023/01/25 08:36:09;;;;;;;43.20;27.00;;;1.50;99.90;;;;;;5002980;28;20320;-77
2023/01/25 08:38:35;;;;;;;46.30;27.57;;;1.60;99.90;;;;;;5002695;28;20273;-79
2023/01/25 08:41:09;;;;;;;42.17;25.93;;;1.60;99.90;;;;;;4990064;28;20603;-78
2023/01/25 08:43:35;;;;;;;42.07;24.70;;;1.60;99.90;;;;;;4989677;28;20296;-78
2023/01/25 08:46:01;;;;;;;43.67;25.73;;;1.60;99.90;;;;;;4985781;28;20249;-78
2023/01/25 08:48:29;;;;;;;40.07;25.33;;;1.70;99.90;;;;;;4997937;28;20119;-79
2023/01/25 08:50:55;;;;;;;61.90;34.97;;;1.80;99.90;;;;;;4997818;28;20418;-79
2023/01/25 08:53:20;;;;;;;57.23;33.90;;;1.80;99.90;;;;;;4998867;28;20315;-78
2023/01/25 08:55:49;;;;;;;44.73;30.60;;;1.80;99.90;;;;;;5006712;28;20036;-79
2023/01/25 08:58:18;;;;;;;62.30;41.57;;;1.90;99.90;;;;;;4994819;28;20034;-78
2023/01/25 09:00:44;;;;;;;55.73;36.07;;;1.90;99.90;;;;;;4986917;28;20265;-79
2023/01/25 09:03:10;;;;;;;56.33;34.43;;;1.90;99.90;;;;;;4993514;28;20601;-78
2023/01/25 09:05:38;;;;;;;67.83;40.50;;;1.90;99.90;;;;;;4997694;28;20777;-79
2023/01/25 09:08:05;;;;;;;55.43;33.10;;;1.90;99.90;;;;;;4999548;28;20300;-77
2023/01/25 09:10:33;;;;;;;46.87;27.93;;;1.90;99.90;;;;;;5001871;28;20348;-77
2023/01/25 09:12:59;;;;;;;47.40;32.40;;;1.80;99.90;;;;;;5002583;28;20270;-78
2023/01/25 09:15:25;;;;;;;39.83;25.43;;;1.90;99.90;;;;;;4990111;28;20269;-78
2023/01/25 09:17:53;;;;;;;38.67;25.67;;;2.10;99.90;;;;;;4998962;28;20079;-78
2023/01/25 09:20:18;;;;;;;41.83;26.50;;;2.10;99.90;;;;;;5002545;28;20371;-78
2023/01/25 09:22:44;;;;;;;44.00;25.87;;;2.00;99.90;;;;;;4997608;28;20264;-78
2023/01/25 09:25:10;;;;;;;42.47;26.30;;;1.90;99.90;;;;;;5007659;28;20050;-78
2023/01/25 09:27:38;;;;;;;40.23;25.30;;;1.90;99.90;;;;;;4989803;28;20508;-76
2023/01/25 09:30:05;;;;;;;39.60;24.50;;;2.10;99.90;;;;;;5003942;28;20022;-77
2023/01/25 09:32:31;;;;;;;47.67;28.70;;;2.00;99.90;;;;;;4994777;28;20355;-78
2023/01/25 09:34:57;;;;;;;46.70;26.67;;;1.80;99.90;;;;;;4993650;28;20288;-78
2023/01/25 09:37:22;;;;;;;46.70;27.57;;;1.80;99.90;;;;;;5001034;28;20052;-79
2023/01/25 09:39:48;;;;;;;42.27;26.17;;;1.80;99.90;;;;;;5011136;28;20018;-77
2023/01/25 09:42:25;;;;;;;49.70;29.27;;;1.80;99.90;;;;;;4992678;28;20018;-78
2023/01/25 09:45:09;;;;;;;44.27;25.90;;;1.70;99.90;;;;;;4995305;28;20022;-78
2023/01/25 09:48:03;;;;;;;48.53;27.20;;;1.60;99.90;;;;;;4994667;28;20269;-77
2023/01/25 09:50:37;;;;;;;62.22;33.03;;;1.70;99.90;;;;;;5012752;28;20345;-79
2023/01/25 09:53:27;;;;;;;62.80;33.27;;;1.70;99.90;;;;;;5006023;28;20034;-79
2023/01/25 09:56:10;;;;;;;54.87;29.23;;;1.70;99.90;;;;;;5002918;28;20281;-79
2023/01/25 09:58:41;;;;;;;49.50;27.77;;;1.60;99.90;;;;;;4994989;28;20277;-79
2023/01/25 10:01:18;;;;;;;54.63;29.87;;;1.70;99.90;;;;;;4993731;28;20125;-78
2023/01/25 10:04:31;;;;;;;45.37;27.57;;;1.70;99.90;;;;;;4996580;28;20269;-78
2023/01/25 10:07:19;;;;;;;50.75;28.98;;;1.70;99.90;;;;;;4916922;29;20257;-79
2023/01/25 10:09:58;;;;;;;52.70;30.13;;;1.60;99.90;;;;;;4906287;29;20037;-78
2023/01/25 10:12:25;;;;;;;52.60;30.37;;;1.60;99.90;;;;;;4902098;29;20355;-78
2023/01/25 10:14:52;;;;;;;50.27;30.70;;;1.50;99.90;;;;;;4905625;29;20332;-77
2023/01/25 10:17:37;;;;;;;50.70;28.87;;;1.70;99.90;;;;;;4904484;29;20313;-76
2023/01/25 10:20:18;;;;;;;47.47;27.87;;;1.60;99.90;;;;;;4904019;29;20649;-79
2023/01/25 10:23:04;;;;;;;49.73;29.67;;;1.60;99.90;;;;;;4912064;29;20340;-76
2023/01/25 10:25:58;;;;;;;48.10;27.97;;;1.60;99.90;;;;;;4898529;29;20265;-78
2023/01/25 10:28:36;;;;;;;45.67;26.37;;;1.60;99.90;;;;;;4907977;29;20291;-76
2023/01/25 10:31:15;;;;;;;49.87;27.77;;;1.60;99.90;;;;;;4918185;29;20268;-78
2023/01/25 10:33:46;;;;;;;48.43;28.80;;;1.50;99.90;;;;;;4889017;29;20283;-77
2023/01/25 10:36:19;;;;;;;48.90;29.63;;;1.60;99.90;;;;;;4894144;29;20280;-76
2023/01/25 10:38:48;;;;;;;52.60;30.40;;;1.60;99.90;;;;;;4993224;28;20351;-77
2023/01/25 10:41:29;;;;;;;55.97;30.07;;;1.60;99.90;;;;;;4998745;28;20268;-78
2023/01/25 10:46:47;;;;;;;52.00;28.80;;;1.60;99.90;;;;;;5016967;28;20264;-78
2023/01/25 10:49:25;;;;;;;48.73;29.40;;;1.60;99.90;;;;;;5000088;28;20276;-78
2023/01/25 10:51:51;;;;;;;53.97;29.60;;;1.70;99.90;;;;;;5005984;28;20710;-78
2023/01/25 10:54:16;;;;;;;53.90;30.10;;;1.70;99.90;;;;;;5005403;28;20280;-79
2023/01/25 10:56:44;;;;;;;54.40;29.73;;;1.60;99.90;;;;;;4994989;28;20112;-78
2023/01/25 10:59:22;;;;;;;49.13;28.03;;;1.50;99.90;;;;;;5002627;28;20029;-79
2023/01/25 11:01:47;;;;;;;55.33;31.53;;;1.50;99.90;;;;;;4988885;28;20256;-78
2023/01/25 11:04:32;;;;;;;53.37;30.07;;;1.50;99.90;;;;;;5000429;28;20327;-77
2023/01/25 11:06:59;;;;;;;48.90;29.23;;;1.70;99.90;;;;;;4992305;28;20041;-79
2023/01/25 11:09:27;;;;;;;46.27;27.30;;;1.70;99.90;;;;;;4994490;28;20344;-79
2023/01/25 11:11:54;;;;;;;55.73;30.10;;;1.90;99.90;;;;;;4993562;28;20778;-78
2023/01/25 11:14:23;;;;;;;54.93;31.37;;;1.90;99.90;;;;;;4995812;28;20261;-77
2023/01/25 11:16:48;;;;;;;46.00;26.77;;;1.90;99.90;;;;;;5013323;28;20292;-78
2023/01/25 11:19:26;;;;;;;44.00;25.73;;;1.90;99.90;;;;;;4992559;28;20257;-77
2023/01/25 11:21:53;;;;;;;47.63;27.27;;;1.90;99.90;;;;;;5005672;28;20025;-78
2023/01/25 11:24:19;;;;;;;50.87;31.83;;;2.10;99.90;;;;;;4997844;28;20265;-78
2023/01/25 11:26:45;;;;;;;47.20;28.10;;;2.00;99.90;;;;;;5013183;28;20265;-79
2023/01/25 11:29:12;;;;;;;51.90;29.77;;;1.90;99.90;;;;;;5002385;28;20297;-77
2023/01/25 11:31:44;;;;;;;48.00;28.10;;;1.90;99.90;;;;;;4996956;28;20327;-78
2023/01/25 11:34:16;;;;;;;52.85;29.20;;;1.90;99.90;;;;;;4996133;28;20276;-78
2023/01/25 11:36:48;;;;;;;54.30;30.30;;;1.90;99.90;;;;;;4990278;28;20073;-78
2023/01/25 11:39:32;;;;;;;57.47;31.90;;;1.80;99.90;;;;;;5001615;28;20273;-77
2023/01/25 11:42:22;;;;;;;52.23;29.27;;;1.80;99.90;;;;;;4998871;28;20026;-78
2023/01/25 11:45:18;;;;;;;55.00;32.17;;;1.90;99.90;;;;;;5002848;28;20355;-77
2023/01/25 11:47:53;;;;;;;46.87;28.77;;;2.00;99.90;;;;;;4985933;28;20277;-77
2023/01/25 11:50:37;;;;;;;44.80;26.37;;;2.00;99.90;;;;;;4997995;28;20269;-78
2023/01/25 11:53:26;;;;;;;48.57;28.60;;;1.90;99.90;;;;;;5012151;28;20347;-78
2023/01/25 11:56:00;;;;;;;46.53;27.93;;;2.00;99.90;;;;;;4998716;28;20276;-78
2023/01/25 11:59:08;;;;;;;51.23;29.77;;;1.90;99.90;;;;;;5015047;28;20291;-77
2023/01/25 12:01:55;;;;;;;51.43;27.83;;;1.90;99.90;;;;;;4991236;28;20284;-77
2023/01/25 12:04:45;;;;;;;52.70;29.73;;;2.00;99.90;;;;;;5005944;28;20280;-77
2023/01/25 12:07:34;;;;;;;47.67;28.07;;;1.90;99.90;;;;;;4984074;28;20796;-78
2023/01/25 12:10:14;;;;;;;52.40;29.40;;;1.90;99.90;;;;;;5005325;28;20272;-77
2023/01/25 12:12:54;;;;;;;54.00;29.17;;;1.70;99.90;;;;;;4995028;28;20353;-77
2023/01/25 12:15:52;;;;;;;44.40;26.80;;;1.80;99.90;;;;;;4999118;28;20257;-78
2023/01/25 12:18:26;;;;;;;45.67;26.83;;;1.80;99.90;;;;;;4956259;28;20285;-77
2023/01/25 12:21:19;;;;;;;55.90;30.17;;;1.80;99.90;;;;;;4983823;28;20052;-77
2023/01/25 12:23:47;;;;;;;50.05;27.77;;;1.90;99.90;;;;;;4994323;28;20310;-76
2023/01/25 12:26:38;;;;;;;50.50;29.47;;;1.90;99.90;;;;;;5004959;28;20104;-77
2023/01/25 12:29:25;;;;;;;52.30;28.43;;;1.90;99.90;;;;;;4996552;28;20328;-78
2023/01/25 12:31:57;;;;;;;55.33;30.00;;;1.90;99.90;;;;;;4981693;28;20301;-78
2023/01/25 12:34:38;;;;;;;49.43;29.57;;;1.80;99.90;;;;;;4998564;28;20288;-77
2023/01/25 12:37:28;;;;;;;55.67;30.47;;;1.60;99.90;;;;;;4998457;28;20285;-77
2023/01/25 12:40:18;;;;;;;57.00;31.73;;;1.50;99.90;;;;;;4995330;28;20273;-77
2023/01/25 12:42:52;;;;;;;53.47;30.23;;;1.60;99.90;;;;;;4987321;28;20368;-77
2023/01/25 12:45:30;;;;;;;49.53;30.03;;;1.70;99.90;;;;;;4992299;28;20274;-77
2023/01/25 12:48:03;;;;;;;58.23;31.70;;;1.80;99.90;;;;;;4984965;28;20282;-76
2023/01/25 12:50:48;;;;;;;60.15;33.58;;;1.90;99.90;;;;;;4991489;28;20281;-78
2023/01/25 12:53:28;;;;;;;61.47;33.33;;;1.90;99.90;;;;;;5005863;28;20022;-77
2023/01/25 12:55:56;;;;;;;57.53;31.53;;;1.90;99.90;;;;;;4991174;28;20288;-77